Webcam Flughafen St.Gallen-Altenrhein

Live-Bilder und Zeitraffer LSZR / ACH.

 

Live aus Altenrhein
LIVE
LSZR 111750Z 20003KT CAVOK 27/19 Q1016 NOSIG RMK O
Zeitraffer heute
2020-08-11 00:14:40
LSZR 102150Z AUTO 27004KT 230V320 CAVOK 26/15 Q1016